Time;durP1;ratioP1;P1;durP2;ratioP2;P2;SDS_P1;SDS_P2;PMS_P1;PMS_P2;Temp;Humidity;BMP_temperature;BMP_pressure;BME280_temperature;BME280_humidity;BME280_pressure;Samples;Min_cycle;Max_cycle;Signal;HPM_P1;HPM_P2
2022/12/31 00:01:35;;;;;;;6.07;4.97;;;14.00;43.60;;;;;;5113022;28;20823;-53
2022/12/31 00:04:01;;;;;;;4.80;4.33;;;14.00;43.10;;;;;;5112469;28;20424;-52
2022/12/31 00:06:34;;;;;;;3.87;2.53;;;14.00;43.10;;;;;;5112676;28;20407;-52
2022/12/31 00:09:03;;;;;;;3.50;2.33;;;14.00;43.40;;;;;;5112815;28;20404;-52
2022/12/31 00:11:30;;;;;;;2.83;1.55;;;14.00;43.50;;;;;;5112786;28;20740;-53
2022/12/31 00:13:57;;;;;;;1.50;1.20;;;14.10;44.00;;;;;;5112833;28;20282;-52
2022/12/31 00:16:25;;;;;;;2.80;1.48;;;14.20;43.90;;;;;;5112689;28;20538;-53
2022/12/31 00:18:53;;;;;;;2.03;1.40;;;14.30;43.60;;;;;;5112727;28;20616;-52
2022/12/31 00:21:19;;;;;;;3.72;1.65;;;14.30;43.60;;;;;;5112562;28;20195;-53
2022/12/31 00:23:45;;;;;;;2.50;1.63;;;14.30;43.60;;;;;;5112774;28;20175;-52
2022/12/31 00:26:15;;;;;;;2.10;1.50;;;14.40;43.70;;;;;;5112443;28;20167;-52
2022/12/31 00:28:41;;;;;;;1.52;1.20;;;14.40;43.60;;;;;;5112689;28;20638;-52
2022/12/31 00:31:25;;;;;;;2.95;1.50;;;14.40;44.00;;;;;;5112648;28;20191;-53
2022/12/31 00:33:51;;;;;;;2.65;2.08;;;14.40;43.90;;;;;;5112427;28;20567;-52
2022/12/31 00:36:23;;;;;;;4.18;2.95;;;14.40;44.20;;;;;;5112416;28;20175;-52
2022/12/31 00:38:51;;;;;;;2.40;1.42;;;14.50;44.00;;;;;;5112690;28;20167;-53
2022/12/31 00:41:18;;;;;;;2.63;1.77;;;14.50;44.00;;;;;;5112511;28;20195;-53
2022/12/31 00:43:44;;;;;;;3.33;1.88;;;14.50;43.70;;;;;;5112561;28;20657;-52
2022/12/31 00:46:11;;;;;;;3.00;1.10;;;14.50;44.40;;;;;;5112229;28;20250;-51
2022/12/31 00:48:38;;;;;;;2.58;1.70;;;14.60;44.10;;;;;;5112419;28;20774;-52
2022/12/31 00:51:06;;;;;;;3.15;2.00;;;14.60;43.70;;;;;;5112525;28;20279;-53
2022/12/31 00:53:32;;;;;;;2.97;1.67;;;14.70;43.70;;;;;;5112453;28;20635;-53
2022/12/31 00:56:09;;;;;;;2.20;1.38;;;14.80;43.50;;;;;;5112036;28;20203;-52
2022/12/31 00:58:34;;;;;;;2.42;1.88;;;14.80;43.40;;;;;;5112345;28;20219;-52
2022/12/31 01:01:23;;;;;;;2.92;2.03;;;14.80;43.40;;;;;;5112206;28;20603;-52
2022/12/31 01:03:51;;;;;;;3.28;2.28;;;14.80;43.00;;;;;;5112298;28;20660;-53
2022/12/31 01:06:18;;;;;;;2.00;1.35;;;14.80;43.00;;;;;;5111934;28;20171;-53
2022/12/31 01:08:44;;;;;;;2.72;1.70;;;14.80;43.00;;;;;;5112187;28;20266;-53
2022/12/31 01:11:27;;;;;;;3.70;1.97;;;14.90;43.80;;;;;;5111946;28;20324;-53
2022/12/31 01:14:09;;;;;;;2.70;1.60;;;14.90;43.00;;;;;;5112629;28;20326;-52
2022/12/31 01:16:42;;;;;;;2.85;1.83;;;14.90;43.00;;;;;;5113190;28;20164;-53
2022/12/31 01:19:11;;;;;;;3.35;2.03;;;14.80;42.90;;;;;;5116102;28;20206;-52
2022/12/31 01:21:38;;;;;;;4.15;1.80;;;14.80;43.00;;;;;;5115958;28;20172;-52
2022/12/31 01:24:04;;;;;;;4.15;1.65;;;14.80;43.00;;;;;;5115993;28;20183;-53
2022/12/31 01:26:30;;;;;;;3.03;2.00;;;14.80;43.00;;;;;;5115960;28;20184;-53
2022/12/31 01:28:56;;;;;;;3.30;2.07;;;14.70;43.00;;;;;;5115939;28;20617;-53
2022/12/31 01:31:23;;;;;;;2.77;1.93;;;14.70;43.20;;;;;;5115888;27;20187;-52
2022/12/31 01:33:50;;;;;;;2.75;1.58;;;14.60;43.10;;;;;;5115817;28;20411;-52
2022/12/31 01:36:19;;;;;;;2.20;1.80;;;14.60;43.10;;;;;;5115518;28;20175;-53
2022/12/31 01:38:45;;;;;;;3.50;2.08;;;14.60;43.10;;;;;;5115812;28;20254;-53
2022/12/31 01:41:13;;;;;;;3.10;1.87;;;14.50;43.10;;;;;;5115813;28;20274;-53
2022/12/31 01:43:42;;;;;;;4.32;2.72;;;14.50;43.20;;;;;;5115755;27;20655;-53
2022/12/31 01:46:11;;;;;;;2.42;2.17;;;14.50;43.30;;;;;;5115467;28;20195;-53
2022/12/31 01:48:37;;;;;;;2.90;2.10;;;14.50;43.30;;;;;;5115542;27;20167;-53
2022/12/31 01:51:06;;;;;;;2.97;1.90;;;14.40;43.30;;;;;;5115465;28;20278;-53
2022/12/31 01:53:32;;;;;;;4.63;2.63;;;14.40;43.40;;;;;;5115679;28;20171;-52
2022/12/31 01:55:59;;;;;;;5.47;2.60;;;14.40;43.60;;;;;;5115168;28;20658;-52
2022/12/31 01:58:33;;;;;;;3.90;2.67;;;14.40;43.60;;;;;;5115377;28;20935;-53
2022/12/31 02:00:59;;;;;;;3.05;2.03;;;14.40;43.80;;;;;;5115261;28;20199;-51
2022/12/31 02:03:27;;;;;;;3.90;2.40;;;14.40;43.70;;;;;;5115213;28;20171;-53
2022/12/31 02:06:11;;;;;;;4.13;2.53;;;14.40;43.60;;;;;;5115083;28;20408;-53
2022/12/31 02:08:38;;;;;;;3.78;2.65;;;14.40;43.70;;;;;;5115131;28;20642;-53
2022/12/31 02:11:36;;;;;;;3.97;3.00;;;14.40;43.70;;;;;;5114978;28;20214;-52
2022/12/31 02:14:25;;;;;;;2.90;2.10;;;14.50;43.60;;;;;;5069987;28;20199;-52
2022/12/31 02:16:59;;;;;;;3.17;2.30;;;14.50;43.70;;;;;;5115099;28;20220;-52
2022/12/31 02:20:02;;;;;;;2.22;1.80;;;14.40;43.60;;;;;;5115413;28;20190;-53
2022/12/31 02:22:49;;;;;;;3.75;2.17;;;14.50;44.10;;;;;;5115298;28;20167;-52
2022/12/31 02:25:33;;;;;;;3.30;2.20;;;14.40;44.00;;;;;;5114681;28;20171;-53
2022/12/31 02:28:35;;;;;;;2.83;2.13;;;14.40;44.40;;;;;;5114476;28;20167;-52
2022/12/31 02:31:16;;;;;;;3.88;2.70;;;14.40;44.50;;;;;;5114747;28;20209;-52
2022/12/31 02:33:51;;;;;;;3.38;2.35;;;14.40;44.60;;;;;;5114728;28;20478;-53
2022/12/31 02:36:26;;;;;;;3.00;2.70;;;14.40;44.50;;;;;;5114549;28;20201;-52
2022/12/31 02:38:54;;;;;;;2.15;1.73;;;14.40;44.70;;;;;;5114495;28;20196;-53
2022/12/31 02:44:25;;;;;;;3.47;1.92;;;14.50;45.00;;;;;;5114818;28;20182;-53
2022/12/31 02:47:06;;;;;;;5.65;2.05;;;14.50;45.00;;;;;;5114514;28;20597;-52
2022/12/31 02:49:49;;;;;;;3.15;1.70;;;14.50;45.10;;;;;;5114477;28;20255;-53
2022/12/31 02:52:36;;;;;;;3.47;1.92;;;14.50;45.10;;;;;;5114443;28;20252;-52
2022/12/31 02:55:12;;;;;;;2.50;2.17;;;14.60;44.90;;;;;;5114116;28;20183;-53
2022/12/31 02:58:13;;;;;;;2.42;1.75;;;14.60;45.00;;;;;;5114223;28;20175;-53
2022/12/31 03:03:33;;;;;;;3.25;2.13;;;14.50;45.00;;;;;;5114429;28;20186;-53
2022/12/31 03:06:02;;;;;;;3.20;1.58;;;14.50;45.30;;;;;;5113841;28;20650;-51
2022/12/31 03:08:27;;;;;;;3.08;1.83;;;14.50;45.00;;;;;;5114409;28;20182;-53
2022/12/31 03:10:55;;;;;;;3.33;1.60;;;14.50;44.90;;;;;;5113910;28;20588;-52
2022/12/31 03:15:57;;;;;;;3.15;1.90;;;14.60;44.80;;;;;;5069805;28;20721;-52
2022/12/31 03:22:26;;;;;;;2.70;1.67;;;14.50;44.90;;;;;;5073629;28;20179;-52
2022/12/31 03:26:40;;;;;;;2.10;1.60;;;14.60;45.10;;;;;;5073148;28;20222;-53
2022/12/31 03:29:06;;;;;;;4.83;2.03;;;14.60;45.10;;;;;;5073144;28;20173;-52
2022/12/31 03:31:32;;;;;;;2.50;1.60;;;14.60;45.30;;;;;;5073046;28;20191;-52
2022/12/31 03:33:57;;;;;;;3.80;2.43;;;14.60;45.50;;;;;;5072998;28;20306;-52
2022/12/31 03:36:23;;;;;;;2.73;1.90;;;14.60;45.30;;;;;;5072592;28;20260;-53
2022/12/31 03:38:49;;;;;;;3.37;1.60;;;14.70;45.50;;;;;;5072399;28;20570;-52
2022/12/31 03:41:14;;;;;;;2.50;1.40;;;14.70;45.40;;;;;;5072734;28;20168;-53
2022/12/31 03:43:40;;;;;;;2.30;1.40;;;14.70;45.60;;;;;;5072720;28;20175;-52
2022/12/31 03:46:06;;;;;;;2.03;1.30;;;14.70;45.80;;;;;;5072483;28;20176;-52
2022/12/31 03:48:31;;;;;;;2.20;1.43;;;14.80;45.80;;;;;;5072682;28;20168;-52
2022/12/31 03:50:57;;;;;;;2.40;1.10;;;14.80;46.10;;;;;;5072559;28;20169;-53
2022/12/31 03:53:23;;;;;;;1.40;0.60;;;14.80;46.70;;;;;;5072540;28;20172;-52
2022/12/31 03:55:52;;;;;;;2.00;1.27;;;14.90;47.00;;;;;;5072248;28;20203;-52
2022/12/31 03:58:18;;;;;;;2.85;1.50;;;15.00;46.60;;;;;;5072654;28;20898;-52
2022/12/31 04:00:44;;;;;;;1.87;1.10;;;15.10;46.70;;;;;;5072396;28;20191;-52
2022/12/31 04:03:10;;;;;;;2.13;1.43;;;15.10;46.20;;;;;;5072480;28;20434;-53
2022/12/31 04:05:35;;;;;;;3.00;1.70;;;15.10;46.00;;;;;;5072028;28;20199;-53
2022/12/31 04:08:01;;;;;;;1.97;1.33;;;15.10;45.90;;;;;;5072357;28;20176;-53
2022/12/31 04:10:27;;;;;;;4.20;1.20;;;15.00;45.90;;;;;;5072276;28;20648;-52
2022/12/31 04:12:53;;;;;;;5.87;1.70;;;15.10;46.20;;;;;;5072256;28;20502;-52
2022/12/31 04:15:20;;;;;;;2.90;1.50;;;15.00;46.00;;;;;;5071824;28;20218;-52
2022/12/31 04:17:46;;;;;;;2.70;1.25;;;15.00;46.10;;;;;;5072305;28;20173;-52
2022/12/31 04:20:12;;;;;;;4.00;1.45;;;15.00;46.40;;;;;;5072186;28;20415;-52
2022/12/31 04:22:38;;;;;;;2.23;1.20;;;15.00;46.40;;;;;;5072150;28;20161;-52
2022/12/31 04:25:10;;;;;;;1.87;1.20;;;15.10;46.50;;;;;;5071872;28;20419;-52
2022/12/31 04:27:40;;;;;;;1.85;1.30;;;15.10;46.20;;;;;;5072218;28;20172;-52
2022/12/31 04:30:06;;;;;;;1.85;1.15;;;15.10;46.60;;;;;;5072142;28;20666;-52
2022/12/31 04:32:32;;;;;;;1.50;1.20;;;15.10;46.80;;;;;;5072084;28;20180;-52
2022/12/31 04:34:58;;;;;;;1.60;1.10;;;15.20;46.50;;;;;;5071670;28;20200;-52
2022/12/31 04:37:23;;;;;;;1.90;1.17;;;15.20;46.60;;;;;;5072007;28;20567;-52
2022/12/31 04:39:49;;;;;;;2.47;1.37;;;15.20;46.70;;;;;;5072152;28;20203;-52
2022/12/31 04:42:15;;;;;;;2.27;1.00;;;15.20;46.80;;;;;;5072018;28;20260;-52
2022/12/31 04:44:40;;;;;;;1.80;1.00;;;15.20;46.90;;;;;;5071618;28;20197;-53
2022/12/31 04:47:06;;;;;;;1.40;0.97;;;15.30;46.90;;;;;;5072046;28;20459;-52
2022/12/31 04:49:32;;;;;;;1.73;0.97;;;15.40;46.70;;;;;;5071849;28;20184;-52
2022/12/31 04:51:58;;;;;;;2.80;1.20;;;15.40;46.90;;;;;;5075491;28;20168;-53
2022/12/31 04:54:23;;;;;;;6.40;1.10;;;15.40;47.00;;;;;;5075666;28;20218;-52
2022/12/31 04:56:49;;;;;;;2.13;1.23;;;15.40;46.90;;;;;;5075959;28;20658;-52
2022/12/31 04:59:15;;;;;;;3.90;3.07;;;15.40;47.10;;;;;;5075982;28;20164;-52
2022/12/31 05:01:41;;;;;;;2.10;1.10;;;15.50;47.20;;;;;;5075872;28;20249;-52
2022/12/31 05:04:06;;;;;;;1.10;0.70;;;15.40;47.10;;;;;;5075594;28;20245;-52
2022/12/31 05:06:32;;;;;;;2.70;0.80;;;15.50;47.30;;;;;;5075562;28;20184;-52
2022/12/31 05:08:58;;;;;;;2.40;1.00;;;15.50;47.10;;;;;;5075710;28;20252;-53
2022/12/31 05:11:24;;;;;;;1.70;1.27;;;15.60;47.10;;;;;;5075673;28;20172;-52
2022/12/31 05:13:49;;;;;;;1.70;1.10;;;15.60;46.90;;;;;;5075653;28;20188;-53
2022/12/31 05:16:15;;;;;;;1.60;1.07;;;15.60;47.00;;;;;;5075402;28;20173;-52
2022/12/31 05:18:41;;;;;;;2.33;0.90;;;15.70;46.70;;;;;;5075447;28;20199;-53
2022/12/31 05:21:06;;;;;;;1.53;0.80;;;15.80;46.60;;;;;;5075551;28;20171;-52
2022/12/31 05:23:32;;;;;;;2.20;1.30;;;15.80;46.40;;;;;;5075529;28;20196;-52
2022/12/31 05:25:58;;;;;;;1.60;0.90;;;15.80;46.20;;;;;;5075143;28;20172;-52
2022/12/31 05:28:24;;;;;;;3.10;1.00;;;15.80;46.30;;;;;;5075640;28;20406;-52
2022/12/31 05:30:51;;;;;;;1.27;0.80;;;15.80;46.20;;;;;;5075233;28;20181;-52
2022/12/31 05:33:17;;;;;;;1.30;0.70;;;15.80;46.40;;;;;;5075118;28;20663;-52
2022/12/31 05:35:43;;;;;;;1.58;0.82;;;15.90;46.40;;;;;;5074964;28;20224;-52
2022/12/31 05:38:09;;;;;;;2.75;1.50;;;15.90;46.30;;;;;;5075170;28;20176;-53
2022/12/31 05:40:35;;;;;;;1.90;0.90;;;16.00;46.10;;;;;;5075123;28;20214;-53
2022/12/31 05:43:01;;;;;;;2.00;0.80;;;15.90;46.10;;;;;;5075127;28;20247;-52
2022/12/31 05:45:26;;;;;;;2.60;0.87;;;16.00;46.40;;;;;;5074767;28;20655;-52
2022/12/31 05:47:52;;;;;;;1.13;0.43;;;15.90;46.40;;;;;;5074878;28;20222;-52
2022/12/31 05:50:18;;;;;;;1.00;0.40;;;16.00;47.30;;;;;;5074959;28;20517;-53
2022/12/31 05:52:44;;;;;;;1.40;0.60;;;16.00;49.00;;;;;;5075057;28;20662;-53
2022/12/31 05:55:11;;;;;;;1.23;0.50;;;16.10;48.40;;;;;;5074528;28;20688;-53
2022/12/31 05:57:38;;;;;;;0.90;0.20;;;16.20;48.90;;;;;;5074926;28;20175;-52
2022/12/31 06:00:05;;;;;;;1.05;0.50;;;16.40;48.60;;;;;;5074837;28;20198;-53
2022/12/31 06:02:31;;;;;;;1.10;0.32;;;16.60;47.80;;;;;;5073889;28;20168;-53
2022/12/31 06:04:57;;;;;;;0.90;0.30;;;16.80;47.50;;;;;;5074561;28;20188;-52
2022/12/31 06:07:23;;;;;;;0.90;0.30;;;16.90;47.40;;;;;;5074651;28;20223;-52
2022/12/31 06:09:49;;;;;;;0.90;0.40;;;17.00;47.20;;;;;;5074684;28;20230;-52
2022/12/31 06:12:14;;;;;;;1.00;0.20;;;17.10;47.00;;;;;;5074578;28;20172;-53
2022/12/31 06:14:40;;;;;;;1.00;0.40;;;17.20;46.70;;;;;;5074009;28;20545;-52
2022/12/31 06:17:06;;;;;;;1.43;0.40;;;17.20;46.70;;;;;;5074884;28;20275;-53
2022/12/31 06:19:32;;;;;;;0.90;0.30;;;17.30;46.70;;;;;;5074801;28;20202;-53
2022/12/31 06:21:57;;;;;;;0.93;0.40;;;17.40;46.10;;;;;;5074397;28;20176;-53
2022/12/31 06:24:23;;;;;;;1.10;0.50;;;17.50;45.90;;;;;;5072740;28;20204;-53
2022/12/31 06:26:49;;;;;;;1.67;0.50;;;17.50;45.80;;;;;;5074315;28;20219;-53
2022/12/31 06:29:15;;;;;;;0.90;0.30;;;17.60;45.40;;;;;;5074275;28;20402;-53
2022/12/31 06:31:40;;;;;;;2.80;0.60;;;17.60;45.40;;;;;;5074114;28;20172;-53
2022/12/31 06:34:06;;;;;;;1.10;0.40;;;17.50;45.60;;;;;;5073876;28;20434;-53
2022/12/31 06:36:32;;;;;;;1.00;0.40;;;17.60;45.30;;;;;;5074033;28;20191;-53
2022/12/31 06:38:58;;;;;;;1.03;0.37;;;17.60;45.00;;;;;;5074012;28;20540;-52
2022/12/31 06:41:23;;;;;;;1.10;0.40;;;17.60;45.00;;;;;;5074465;28;20461;-53
2022/12/31 06:43:49;;;;;;;2.90;0.60;;;17.60;45.00;;;;;;5073888;28;20669;-53
2022/12/31 06:46:17;;;;;;;0.90;0.30;;;17.60;45.00;;;;;;5073618;28;20811;-52
2022/12/31 06:48:43;;;;;;;1.13;0.40;;;17.60;44.80;;;;;;5073759;28;20570;-52
2022/12/31 06:51:14;;;;;;;2.10;0.60;;;17.60;44.90;;;;;;5073934;28;20179;-53
2022/12/31 06:53:40;;;;;;;0.90;0.30;;;17.70;45.00;;;;;;5073707;28;20171;-53
2022/12/31 06:56:25;;;;;;;1.00;0.30;;;17.60;44.70;;;;;;5073387;28;20290;-53
2022/12/31 06:58:51;;;;;;;1.17;0.32;;;17.60;44.80;;;;;;5073624;28;21002;-53
2022/12/31 07:01:26;;;;;;;1.55;0.70;;;17.60;44.90;;;;;;5073666;28;20218;-53
2022/12/31 07:03:51;;;;;;;1.20;0.70;;;17.60;45.60;;;;;;5073464;28;20589;-53
2022/12/31 07:06:43;;;;;;;1.10;0.57;;;17.60;45.20;;;;;;5073201;28;20165;-53
2022/12/31 07:09:44;;;;;;;1.10;0.60;;;17.50;45.30;;;;;;5073454;28;20171;-53
2022/12/31 07:12:31;;;;;;;1.73;0.70;;;17.60;45.20;;;;;;5073446;28;20180;-53
2022/12/31 07:15:22;;;;;;;1.20;0.63;;;17.60;45.10;;;;;;5071825;28;20200;-53
2022/12/31 07:18:06;;;;;;;0.95;0.38;;;17.60;45.10;;;;;;5073450;28;20536;-53
2022/12/31 07:20:32;;;;;;;1.23;0.63;;;17.70;45.00;;;;;;5073175;28;20667;-52
2022/12/31 07:22:58;;;;;;;2.00;0.68;;;17.70;45.00;;;;;;5073168;28;20165;-53
2022/12/31 07:25:25;;;;;;;1.00;0.40;;;17.80;44.80;;;;;;5072899;28;20200;-52
2022/12/31 07:27:59;;;;;;;1.17;0.40;;;17.70;44.90;;;;;;5073474;28;20440;-52
2022/12/31 07:30:37;;;;;;;1.30;0.60;;;17.80;45.60;;;;;;5073022;28;20241;-53
2022/12/31 07:33:15;;;;;;;1.83;0.70;;;17.90;44.50;;;;;;5072958;28;20175;-53
2022/12/31 07:36:07;;;;;;;1.55;0.65;;;17.80;44.80;;;;;;5072577;28;20679;-53
2022/12/31 07:38:53;;;;;;;1.83;1.10;;;17.90;44.70;;;;;;5072788;28;20529;-53
2022/12/31 07:41:41;;;;;;;1.70;1.20;;;18.10;44.20;;;;;;5072801;28;20260;-53
2022/12/31 07:44:31;;;;;;;3.03;1.73;;;18.10;44.00;;;;;;5072621;28;20196;-53
2022/12/31 07:47:00;;;;;;;3.20;2.03;;;18.10;43.90;;;;;;5072583;28;20164;-53
2022/12/31 07:49:27;;;;;;;2.88;1.13;;;18.10;44.00;;;;;;5072664;28;20172;-53
2022/12/31 07:51:54;;;;;;;2.40;1.30;;;18.10;44.00;;;;;;5072527;28;20181;-53
2022/12/31 07:54:20;;;;;;;2.80;0.95;;;18.10;44.00;;;;;;5072326;28;20203;-53
2022/12/31 07:56:47;;;;;;;1.48;0.60;;;18.20;43.90;;;;;;5072426;28;20639;-53
2022/12/31 07:59:51;;;;;;;1.45;0.60;;;18.20;44.10;;;;;;5072670;28;20262;-53
2022/12/31 08:02:32;;;;;;;1.67;0.77;;;18.30;44.00;;;;;;5072634;28;20173;-53
2022/12/31 08:05:20;;;;;;;2.33;1.08;;;18.50;43.80;;;;;;5072155;28;20191;-53
2022/12/31 08:07:55;;;;;;;2.00;0.85;;;18.60;43.60;;;;;;5072305;28;20279;-53
2022/12/31 08:10:28;;;;;;;2.28;0.95;;;18.80;43.20;;;;;;5072621;28;20187;-53
2022/12/31 08:13:02;;;;;;;2.13;0.50;;;18.80;43.10;;;;;;5072366;28;20181;-53
2022/12/31 08:15:29;;;;;;;1.63;0.75;;;18.90;42.80;;;;;;5071864;28;20208;-53
2022/12/31 08:17:55;;;;;;;1.58;0.60;;;18.90;43.10;;;;;;5072184;28;20173;-53
2022/12/31 08:20:20;;;;;;;1.00;0.40;;;19.00;42.80;;;;;;5072216;28;20161;-53
2022/12/31 08:23:10;;;;;;;3.23;0.80;;;19.00;42.60;;;;;;5072183;28;20248;-53
2022/12/31 08:25:42;;;;;;;1.50;0.88;;;19.00;42.80;;;;;;5071607;28;20321;-53
2022/12/31 08:28:17;;;;;;;2.17;1.13;;;18.90;43.10;;;;;;5072091;28;20640;-53
2022/12/31 08:31:00;;;;;;;1.48;0.82;;;19.10;43.40;;;;;;5071975;28;20184;-53
2022/12/31 08:33:35;;;;;;;2.15;1.15;;;19.30;42.80;;;;;;5072400;28;20230;-53
2022/12/31 08:36:13;;;;;;;1.70;1.00;;;19.40;42.40;;;;;;5071670;28;20611;-53
2022/12/31 08:38:45;;;;;;;3.28;1.08;;;19.50;41.80;;;;;;5071945;28;20192;-53
2022/12/31 08:41:22;;;;;;;3.25;1.15;;;19.40;42.20;;;;;;5072171;28;20176;-53
2022/12/31 08:44:00;;;;;;;1.42;0.90;;;19.60;41.80;;;;;;5071744;28;20263;-53
2022/12/31 08:47:03;;;;;;;1.45;0.60;;;19.80;41.30;;;;;;5071776;28;20248;-53
2022/12/31 08:49:31;;;;;;;1.40;0.70;;;19.80;40.90;;;;;;5072022;28;20535;-53
2022/12/31 08:51:59;;;;;;;1.42;0.73;;;19.70;41.90;;;;;;5071956;28;20168;-54
2022/12/31 08:54:25;;;;;;;1.25;0.60;;;19.70;41.40;;;;;;5071680;28;20559;-53
2022/12/31 08:56:59;;;;;;;1.90;0.93;;;19.60;41.50;;;;;;5071927;28;20172;-53
2022/12/31 08:59:43;;;;;;;1.25;0.70;;;19.60;41.80;;;;;;5071705;28;20712;-53
2022/12/31 09:02:31;;;;;;;1.40;0.93;;;19.80;41.40;;;;;;5072168;28;20536;-53
2022/12/31 09:05:08;;;;;;;2.47;0.77;;;20.00;41.10;;;;;;5071482;28;20188;-53
2022/12/31 09:07:38;;;;;;;3.92;0.63;;;20.10;40.60;;;;;;5071844;28;20168;-53
2022/12/31 09:10:31;;;;;;;1.50;0.90;;;20.10;40.40;;;;;;5071726;28;20566;-53
2022/12/31 09:13:14;;;;;;;1.40;0.70;;;20.20;40.80;;;;;;5071683;28;20193;-53
2022/12/31 09:15:45;;;;;;;1.73;0.90;;;20.20;40.40;;;;;;5071168;28;20265;-53
2022/12/31 09:18:11;;;;;;;1.60;0.80;;;20.40;40.50;;;;;;5088800;22;20173;-54
2022/12/31 09:20:38;;;;;;;1.40;0.73;;;20.30;40.30;;;;;;5111523;28;20198;-54
2022/12/31 09:23:04;;;;;;;1.60;0.90;;;20.40;40.60;;;;;;5112190;28;20168;-54
2022/12/31 09:25:31;;;;;;;1.92;0.90;;;20.50;40.10;;;;;;5111916;28;20629;-54
2022/12/31 09:27:59;;;;;;;1.25;0.75;;;20.50;39.70;;;;;;5111758;28;20179;-54
2022/12/31 09:30:28;;;;;;;1.70;0.95;;;20.60;40.00;;;;;;5073548;28;20225;-54
2022/12/31 09:33:10;;;;;;;1.15;0.57;;;20.70;39.40;;;;;;5091650;28;20242;-54
2022/12/31 09:35:53;;;;;;;1.60;1.10;;;20.60;39.50;;;;;;5091369;28;20275;-54
2022/12/31 09:38:51;;;;;;;2.40;1.23;;;20.50;39.70;;;;;;5093832;28;20187;-54
2022/12/31 09:41:38;;;;;;;1.33;0.60;;;20.40;39.60;;;;;;5095282;28;20716;-54
2022/12/31 09:44:56;;;;;;;1.40;0.75;;;20.40;39.80;;;;;;5095423;28;20172;-54
2022/12/31 09:47:41;;;;;;;2.38;0.88;;;20.40;39.60;;;;;;4993346;28;20207;-54
2022/12/31 09:50:37;;;;;;;2.08;1.20;;;20.30;40.00;;;;;;4993363;28;20199;-54
2022/12/31 09:53:25;;;;;;;2.50;1.00;;;20.30;39.70;;;;;;4993287;28;20183;-54
2022/12/31 09:55:51;;;;;;;1.85;0.90;;;20.40;40.00;;;;;;4993032;28;20207;-54
2022/12/31 09:58:34;;;;;;;1.83;0.63;;;20.60;39.40;;;;;;4993080;28;20223;-54
2022/12/31 10:01:17;;;;;;;1.30;0.77;;;20.80;38.90;;;;;;4993235;28;20218;-54
2022/12/31 10:04:23;;;;;;;1.80;1.35;;;20.80;38.70;;;;;;4993229;28;20319;-54
2022/12/31 10:07:12;;;;;;;2.28;0.70;;;21.10;38.70;;;;;;4993018;28;20191;-53
2022/12/31 10:10:01;;;;;;;2.30;1.05;;;21.30;37.70;;;;;;4992891;28;20714;-54
2022/12/31 10:13:11;;;;;;;1.40;0.70;;;21.50;37.80;;;;;;4992751;28;20226;-54
2022/12/31 10:16:05;;;;;;;2.72;1.30;;;21.90;37.20;;;;;;4977844;28;20225;-54
2022/12/31 10:18:48;;;;;;;1.83;1.48;;;22.20;36.10;;;;;;5068554;28;20204;-54
2022/12/31 10:21:52;;;;;;;1.10;0.68;;;22.20;36.30;;;;;;5094681;28;20170;-54
2022/12/31 10:24:52;;;;;;;1.67;0.97;;;22.20;36.50;;;;;;5094415;28;20183;-53
2022/12/31 10:27:47;;;;;;;1.77;0.77;;;22.40;35.80;;;;;;5094455;28;20406;-53
2022/12/31 10:30:19;;;;;;;1.38;0.75;;;22.60;35.50;;;;;;5094370;28;20433;-54
2022/12/31 10:33:09;;;;;;;2.35;0.90;;;22.60;35.30;;;;;;5094390;28;20180;-54
2022/12/31 10:36:14;;;;;;;3.03;0.70;;;22.60;36.40;;;;;;5094069;28;20210;-54
2022/12/31 10:39:06;;;;;;;1.87;0.90;;;22.70;35.50;;;;;;5093325;28;20566;-54
2022/12/31 10:41:47;;;;;;;1.57;0.90;;;22.20;36.70;;;;;;5094129;28;20437;-54
2022/12/31 10:44:27;;;;;;;2.07;1.07;;;22.30;36.20;;;;;;5094092;28;20551;-54
2022/12/31 10:47:20;;;;;;;1.73;0.80;;;22.30;36.00;;;;;;5094436;28;20401;-54
2022/12/31 10:50:26;;;;;;;1.90;0.90;;;22.30;36.80;;;;;;5094144;28;20426;-54
2022/12/31 10:53:21;;;;;;;2.60;1.30;;;22.20;35.90;;;;;;5093996;28;20410;-54
2022/12/31 10:56:01;;;;;;;1.70;0.90;;;22.00;36.20;;;;;;5093628;28;20449;-54
2022/12/31 10:58:52;;;;;;;4.70;1.00;;;22.10;36.50;;;;;;5093743;28;20433;-53
2022/12/31 11:01:33;;;;;;;1.63;0.77;;;21.80;36.80;;;;;;5093811;28;20394;-54
2022/12/31 11:04:22;;;;;;;2.63;1.00;;;21.90;37.10;;;;;;5093669;28;20928;-54
2022/12/31 11:07:12;;;;;;;2.00;1.05;;;21.90;36.80;;;;;;5093982;28;20207;-54
2022/12/31 11:09:58;;;;;;;1.50;0.80;;;21.70;37.10;;;;;;5093635;28;20195;-54
2022/12/31 11:12:48;;;;;;;2.97;0.85;;;21.60;37.40;;;;;;5093711;28;20398;-54
2022/12/31 11:15:19;;;;;;;1.55;0.90;;;21.60;37.30;;;;;;5093354;28;20212;-54
2022/12/31 11:18:07;;;;;;;2.05;1.20;;;21.60;37.50;;;;;;5093698;28;20230;-54
2022/12/31 11:20:51;;;;;;;2.22;0.98;;;21.80;37.60;;;;;;5093438;28;20184;-54
2022/12/31 11:23:43;;;;;;;3.05;1.40;;;21.80;37.00;;;;;;5093394;28;20170;-53
2022/12/31 11:26:32;;;;;;;1.92;1.25;;;21.70;37.30;;;;;;5093325;28;20317;-54
2022/12/31 11:28:58;;;;;;;2.80;1.23;;;21.60;37.70;;;;;;5093198;28;20196;-54
2022/12/31 11:32:01;;;;;;;1.30;0.87;;;21.70;37.70;;;;;;5093220;28;20176;-54
2022/12/31 11:34:50;;;;;;;4.00;1.10;;;21.70;37.60;;;;;;5093060;28;20227;-54
2022/12/31 11:37:34;;;;;;;2.65;1.35;;;21.50;37.70;;;;;;5093198;28;20168;-54
2022/12/31 11:40:27;;;;;;;1.52;1.08;;;21.50;37.70;;;;;;5093033;28;20674;-54
2022/12/31 11:43:01;;;;;;;3.45;1.25;;;21.50;37.90;;;;;;5093233;28;20263;-54
2022/12/31 11:45:52;;;;;;;4.00;0.83;;;21.60;37.80;;;;;;5092785;28;20274;-54
2022/12/31 11:48:27;;;;;;;2.27;1.10;;;21.60;37.60;;;;;;5092839;28;20426;-54
2022/12/31 11:51:30;;;;;;;1.77;0.90;;;21.70;37.50;;;;;;5092907;28;20976;-54
2022/12/31 11:54:07;;;;;;;1.80;1.17;;;21.70;37.50;;;;;;5093091;28;20523;-54
2022/12/31 11:56:39;;;;;;;2.40;0.97;;;21.80;37.20;;;;;;5092462;28;20445;-54
2022/12/31 11:59:10;;;;;;;2.47;1.47;;;21.90;37.10;;;;;;5092748;28;20505;-54
2022/12/31 12:01:45;;;;;;;2.03;0.90;;;22.00;36.90;;;;;;5074112;28;20464;-54
2022/12/31 12:04:11;;;;;;;1.40;0.70;;;22.00;37.00;;;;;;5092619;28;20811;-53
2022/12/31 12:06:39;;;;;;;2.87;1.00;;;22.00;37.00;;;;;;5092471;28;20434;-54
2022/12/31 12:09:10;;;;;;;1.90;1.03;;;22.00;37.40;;;;;;5092356;28;20993;-54
2022/12/31 12:11:39;;;;;;;1.80;0.80;;;22.00;36.60;;;;;;5092479;28;20424;-53
2022/12/31 12:14:29;;;;;;;1.23;0.90;;;21.90;36.90;;;;;;5092421;28;20788;-53
2022/12/31 12:16:56;;;;;;;1.93;1.03;;;22.10;36.60;;;;;;5092496;28;20255;-52
2022/12/31 12:19:25;;;;;;;2.00;1.00;;;22.00;36.60;;;;;;5092122;28;20437;-52
2022/12/31 12:21:52;;;;;;;1.30;0.50;;;22.00;36.60;;;;;;5092525;28;20172;-53
2022/12/31 12:24:21;;;;;;;1.93;0.90;;;22.40;36.40;;;;;;5092114;28;20971;-53
2022/12/31 12:26:47;;;;;;;3.40;0.73;;;22.80;35.90;;;;;;5092265;28;20454;-52
2022/12/31 12:29:46;;;;;;;3.00;1.37;;;23.10;34.70;;;;;;5092645;28;20508;-53
2022/12/31 12:32:24;;;;;;;1.83;0.70;;;23.30;34.60;;;;;;5087265;28;20508;-54
2022/12/31 12:34:50;;;;;;;1.60;0.63;;;23.60;34.20;;;;;;5092183;28;20476;-53
2022/12/31 12:37:32;;;;;;;1.87;1.50;;;23.70;34.40;;;;;;5092276;28;21076;-53
2022/12/31 12:40:22;;;;;;;1.20;0.60;;;24.10;33.80;;;;;;5092039;28;20762;-53
2022/12/31 12:42:50;;;;;;;1.87;0.90;;;24.50;33.20;;;;;;5080196;28;20416;-53
2022/12/31 12:45:23;;;;;;;1.20;0.80;;;24.70;32.30;;;;;;5091888;28;20409;-53
2022/12/31 12:47:55;;;;;;;1.60;0.77;;;24.50;32.30;;;;;;5092153;28;21029;-53
2022/12/31 12:50:24;;;;;;;2.70;0.83;;;24.40;32.10;;;;;;5092112;28;20403;-53
2022/12/31 12:53:14;;;;;;;1.60;1.00;;;24.20;32.70;;;;;;5092004;28;20426;-54
2022/12/31 12:55:51;;;;;;;1.30;0.80;;;24.10;32.70;;;;;;5091968;28;20452;-53
2022/12/31 12:58:32;;;;;;;2.60;1.03;;;23.80;33.00;;;;;;5092047;28;20521;-53
2022/12/31 13:01:13;;;;;;;2.00;1.40;;;23.40;33.40;;;;;;5091927;28;20444;-52
2022/12/31 13:03:51;;;;;;;1.57;0.80;;;23.20;34.20;;;;;;5091999;28;20409;-54
2022/12/31 13:06:19;;;;;;;1.70;1.27;;;23.10;34.50;;;;;;5091737;28;20430;-53
2022/12/31 13:08:48;;;;;;;2.30;1.10;;;23.00;34.50;;;;;;5091860;28;20788;-53
2022/12/31 13:11:49;;;;;;;2.00;1.17;;;23.10;34.70;;;;;;5092407;28;20421;-52
2022/12/31 13:14:14;;;;;;;1.60;1.00;;;23.00;34.40;;;;;;5090880;28;20424;-53
2022/12/31 13:17:05;;;;;;;4.10;2.67;;;22.90;34.60;;;;;;5095796;28;20390;-53
2022/12/31 13:19:43;;;;;;;1.57;0.90;;;22.60;34.90;;;;;;5095705;28;20692;-53
2022/12/31 13:22:09;;;;;;;4.53;4.10;;;22.30;35.80;;;;;;5095770;28;20444;-52
2022/12/31 13:24:55;;;;;;;2.90;2.30;;;22.20;35.80;;;;;;5095596;28;20413;-53
2022/12/31 13:27:41;;;;;;;3.10;1.00;;;22.30;35.70;;;;;;5095746;28;20397;-53
2022/12/31 13:30:18;;;;;;;3.93;2.60;;;22.10;35.90;;;;;;5095463;28;20494;-53
2022/12/31 13:32:49;;;;;;;6.20;1.60;;;22.00;36.20;;;;;;5095517;28;20441;-53
2022/12/31 13:35:24;;;;;;;1.77;1.00;;;21.90;36.40;;;;;;5095216;28;20808;-53
2022/12/31 13:37:56;;;;;;;3.70;1.30;;;21.90;36.40;;;;;;5095494;28;20396;-53
2022/12/31 13:40:39;;;;;;;1.63;0.93;;;21.90;36.60;;;;;;5095404;28;20589;-53